createdAt,value
2022-09-28T00:00:08.946Z,21.3
2022-09-28T00:01:11.138Z,21.4
2022-09-28T00:02:13.873Z,21.4
2022-09-28T00:03:16.935Z,21.5
2022-09-28T00:04:19.404Z,21.4
2022-09-28T00:05:21.885Z,21.5
2022-09-28T00:06:24.443Z,21.4
2022-09-28T00:07:26.638Z,21.3
2022-09-28T00:08:29.121Z,21.5
2022-09-28T00:09:31.355Z,21.5
2022-09-28T00:10:33.852Z,21.4
2022-09-28T00:11:36.318Z,21.4
2022-09-28T00:12:38.812Z,21.5
2022-09-28T00:13:41.302Z,21.4
2022-09-28T00:14:43.511Z,21.5
2022-09-28T00:15:45.684Z,21.5
2022-09-28T00:16:48.307Z,21.5
2022-09-28T00:17:51.066Z,21.5
2022-09-28T00:18:53.533Z,21.5
2022-09-28T00:19:56.015Z,21.5
2022-09-28T00:20:57.664Z,21.6
2022-09-28T00:22:00.152Z,21.5
2022-09-28T00:23:02.085Z,21.6
2022-09-28T00:24:04.007Z,21.5
2022-09-28T00:25:05.922Z,21.5
2022-09-28T00:26:08.144Z,21.4
2022-09-28T00:27:10.608Z,21.6
2022-09-28T00:28:12.802Z,21.5
2022-09-28T00:29:15.360Z,21.5
2022-09-28T00:30:17.973Z,21.6
2022-09-28T00:31:20.587Z,21.6
2022-09-28T00:32:23.036Z,21.5
2022-09-28T00:33:25.336Z,21.7
2022-09-28T00:34:27.840Z,21.5
2022-09-28T00:35:29.764Z,21.6
2022-09-28T00:36:32.237Z,21.6
2022-09-28T00:37:34.720Z,21.6
2022-09-28T00:38:36.640Z,21.6
2022-09-28T00:39:39.114Z,21.6
2022-09-28T00:40:41.134Z,21.6
2022-09-28T00:41:43.555Z,21.6
2022-09-28T00:42:45.758Z,21.7
2022-09-28T00:43:47.975Z,21.6
2022-09-28T00:44:50.190Z,21.6
2022-09-28T00:45:52.795Z,21.6
2022-09-28T00:46:55.643Z,21.6
2022-09-28T00:47:58.126Z,21.6
2022-09-28T00:49:00.355Z,21.6
2022-09-28T00:50:02.824Z,21.6
2022-09-28T00:51:04.718Z,21.6
2022-09-28T00:52:06.919Z,21.6
2022-09-28T00:53:09.413Z,21.6
2022-09-28T00:54:11.885Z,21.6
2022-09-28T00:55:14.090Z,21.7
2022-09-28T00:56:16.288Z,21.6
2022-09-28T00:57:18.530Z,21.7
2022-09-28T00:58:20.700Z,21.5
2022-09-28T00:59:22.909Z,21.8
2022-09-28T01:00:25.391Z,21.5
2022-09-28T01:01:27.980Z,21.6
2022-09-28T01:02:30.682Z,21.7
2022-09-28T01:03:33.468Z,21.6
2022-09-28T01:04:35.967Z,21.6
2022-09-28T01:05:38.435Z,21.6
2022-09-28T01:06:40.903Z,21.6
2022-09-28T01:07:43.381Z,21.7
2022-09-28T01:08:45.881Z,21.7
2022-09-28T01:09:48.360Z,21.7
2022-09-28T01:10:50.014Z,21.6
2022-09-28T01:11:52.211Z,21.7
2022-09-28T01:12:54.482Z,21.6
2022-09-28T01:13:56.668Z,21.6
2022-09-28T01:14:58.868Z,21.6
2022-09-28T01:16:01.251Z,21.7
2022-09-28T01:17:03.481Z,21.6
2022-09-28T01:18:05.394Z,21.6
2022-09-28T01:19:07.865Z,21.6
2022-09-28T01:20:10.092Z,21.7
2022-09-28T01:21:12.563Z,21.7
2022-09-28T01:22:15.026Z,21.6
2022-09-28T01:23:17.522Z,21.7
2022-09-28T01:24:20.032Z,21.7
2022-09-28T01:25:22.511Z,21.6
2022-09-28T01:26:24.698Z,21.7
2022-09-28T01:27:27.187Z,21.7
2022-09-28T01:28:29.401Z,21.6
2022-09-28T01:29:31.331Z,21.7
2022-09-28T01:30:33.824Z,21.7
2022-09-28T01:31:36.489Z,21.7
2022-09-28T01:32:39.188Z,21.7
2022-09-28T01:33:41.382Z,21.7
2022-09-28T01:34:43.303Z,21.7
2022-09-28T01:35:45.534Z,21.7
2022-09-28T01:36:48.004Z,21.7
2022-09-28T01:37:50.208Z,21.7
2022-09-28T01:38:52.509Z,21.7
2022-09-28T01:39:54.457Z,21.7
2022-09-28T01:40:56.828Z,21.7
2022-09-28T01:41:59.328Z,21.7
2022-09-28T01:43:01.789Z,21.7
2022-09-28T01:44:04.293Z,21.7
2022-09-28T01:45:06.759Z,21.6
2022-09-28T01:46:08.877Z,21.7
2022-09-28T01:47:11.696Z,21.6
2022-09-28T01:48:13.898Z,21.6
2022-09-28T01:49:16.318Z,21.7
2022-09-28T01:50:18.768Z,21.8
2022-09-28T01:51:20.972Z,21.7
2022-09-28T01:52:23.156Z,21.7
2022-09-28T01:53:25.081Z,21.7
2022-09-28T01:54:27.552Z,21.7
2022-09-28T01:55:29.772Z,21.8
2022-09-28T01:56:31.979Z,21.8
2022-09-28T01:57:34.173Z,21.8
2022-09-28T01:58:35.821Z,21.7
2022-09-28T01:59:38.042Z,21.7
2022-09-28T02:00:40.367Z,21.8
2022-09-28T02:01:43.290Z,21.7
2022-09-28T02:02:45.731Z,21.7
2022-09-28T02:03:48.198Z,21.8
2022-09-28T02:04:50.671Z,21.7
2022-09-28T02:05:53.166Z,21.7
2022-09-28T02:06:55.669Z,21.8
2022-09-28T02:07:57.905Z,21.8
2022-09-28T02:08:59.907Z,21.7
2022-09-28T02:10:02.396Z,21.7
2022-09-28T02:11:04.926Z,21.7
2022-09-28T02:12:06.844Z,21.7
2022-09-28T02:13:09.048Z,21.7
2022-09-28T02:14:10.951Z,21.7
2022-09-28T02:15:13.164Z,21.8
2022-09-28T02:16:15.221Z,21.8
2022-09-28T02:17:17.951Z,21.7
2022-09-28T02:18:20.445Z,21.8
2022-09-28T02:19:22.362Z,21.7
2022-09-28T02:20:24.562Z,21.7
2022-09-28T02:21:27.036Z,21.7
2022-09-28T02:22:29.536Z,21.8
2022-09-28T02:23:32.000Z,21.6
2022-09-28T02:24:34.481Z,21.8
2022-09-28T02:25:36.673Z,21.7
2022-09-28T02:26:38.896Z,21.7
2022-09-28T02:27:41.364Z,21.8
2022-09-28T02:28:43.547Z,21.8
2022-09-28T02:29:45.464Z,21.8
2022-09-28T02:30:47.956Z,21.7
2022-09-28T02:31:49.975Z,21.8
2022-09-28T02:32:52.470Z,21.7
2022-09-28T02:33:54.971Z,21.7
2022-09-28T02:34:57.439Z,21.8
2022-09-28T02:35:59.939Z,21.8
2022-09-28T02:37:02.426Z,21.8
2022-09-28T02:38:04.651Z,21.8
2022-09-28T02:39:07.125Z,21.8
2022-09-28T02:40:09.325Z,21.8
2022-09-28T02:41:11.798Z,21.7
2022-09-28T02:42:13.736Z,21.7
2022-09-28T02:43:15.934Z,21.7
2022-09-28T02:44:18.408Z,21.7
2022-09-28T02:45:20.634Z,21.8
2022-09-28T02:46:23.113Z,21.7
2022-09-28T02:47:25.294Z,21.7
2022-09-28T02:49:33.403Z,21.7
2022-09-28T02:50:36.147Z,21.7
2022-09-28T02:51:38.341Z,21.8
2022-09-28T02:52:40.539Z,21.9
2022-09-28T02:53:42.754Z,21.7
2022-09-28T02:54:44.954Z,21.8
2022-09-28T02:55:47.152Z,21.8
2022-09-28T02:56:49.639Z,21.8
2022-09-28T02:57:51.841Z,21.8
2022-09-28T02:58:53.478Z,21.7
2022-09-28T02:59:55.954Z,21.9
2022-09-28T03:00:57.732Z,21.8
2022-09-28T03:02:00.333Z,21.7
2022-09-28T03:03:03.089Z,21.8
2022-09-28T03:04:05.580Z,21.7
2022-09-28T03:05:08.056Z,21.7
2022-09-28T03:06:10.539Z,21.8
2022-09-28T03:07:13.026Z,21.8
2022-09-28T03:08:15.220Z,21.7
2022-09-28T03:09:17.636Z,21.7
2022-09-28T03:10:20.124Z,21.7
2022-09-28T03:11:22.364Z,21.7
2022-09-28T03:12:24.841Z,21.6
2022-09-28T03:13:27.385Z,21.6
2022-09-28T03:14:29.863Z,21.6
2022-09-28T03:15:32.374Z,21.6
2022-09-28T03:16:34.120Z,21.5
2022-09-28T03:17:36.568Z,21.6
2022-09-28T03:18:38.835Z,21.6
2022-09-28T03:19:41.069Z,21.6
2022-09-28T03:20:42.969Z,21.4
2022-09-28T03:21:45.452Z,21.5
2022-09-28T03:23:53.144Z,21.4
2022-09-28T03:24:55.150Z,21.6
2022-09-28T03:25:57.617Z,21.5
2022-09-28T03:26:59.844Z,21.4
2022-09-28T03:28:02.316Z,21.5
2022-09-28T03:29:04.806Z,21.5
2022-09-28T03:30:06.999Z,21.4
2022-09-28T03:31:09.299Z,21.4
2022-09-28T03:32:12.083Z,21.5
2022-09-28T03:33:14.298Z,21.5
2022-09-28T03:34:16.504Z,21.5
2022-09-28T03:35:18.448Z,21.5
2022-09-28T03:36:20.920Z,21.5
2022-09-28T03:37:23.419Z,21.3
2022-09-28T03:38:25.612Z,21.5
2022-09-28T03:39:28.084Z,21.4
2022-09-28T03:40:30.840Z,21.4
2022-09-28T03:41:33.755Z,21.5
2022-09-28T03:42:36.276Z,21.4
2022-09-28T03:43:38.754Z,21.4
2022-09-28T03:44:41.265Z,21.4
2022-09-28T03:45:43.873Z,21.4
2022-09-28T03:46:46.280Z,21.4
2022-09-28T03:47:48.765Z,21.3
2022-09-28T03:48:51.536Z,21.4
2022-09-28T03:49:53.911Z,21.3
2022-09-28T03:50:56.423Z,21.3
2022-09-28T03:51:58.651Z,21.3
2022-09-28T03:53:01.170Z,21.4
2022-09-28T03:54:03.368Z,21.3
2022-09-28T03:55:05.564Z,21.3
2022-09-28T03:56:08.104Z,21.3
2022-09-28T03:57:10.269Z,21.4
2022-09-28T03:58:12.448Z,21.2
2022-09-28T03:59:15.046Z,21.3
2022-09-28T04:00:17.848Z,21.3
2022-09-28T04:01:20.631Z,21.3
2022-09-28T04:02:23.497Z,21.3
2022-09-28T04:03:26.284Z,21.3
2022-09-28T04:04:28.500Z,21.3
2022-09-28T04:05:30.973Z,21.3
2022-09-28T04:06:33.462Z,21.3
2022-09-28T04:07:35.936Z,21.3
2022-09-28T04:08:38.140Z,21.3
2022-09-28T04:09:40.616Z,21.3
2022-09-28T04:10:42.817Z,21.3
2022-09-28T04:12:50.360Z,21.3
2022-09-28T04:13:52.860Z,21.3
2022-09-28T04:14:55.058Z,21.2
2022-09-28T04:15:57.656Z,21.3
2022-09-28T04:17:00.390Z,21.3
2022-09-28T04:18:02.312Z,21.2
2022-09-28T04:19:04.214Z,21.3
2022-09-28T04:20:06.490Z,21.2
2022-09-28T04:21:08.980Z,21.3
2022-09-28T04:22:11.488Z,21.2
2022-09-28T04:23:13.673Z,21.3
2022-09-28T04:24:15.908Z,21.3
2022-09-28T04:25:18.395Z,21.3
2022-09-28T04:26:20.592Z,21.3
2022-09-28T04:27:22.212Z,21.2
2022-09-28T04:28:24.716Z,21.2
2022-09-28T04:29:27.204Z,21.3
2022-09-28T04:30:29.731Z,21.2
2022-09-28T04:31:32.420Z,21.3
2022-09-28T04:32:35.268Z,21.3
2022-09-28T04:33:37.775Z,21.3
2022-09-28T04:35:45.246Z,21.2
2022-09-28T04:36:47.464Z,21.2
2022-09-28T04:37:49.953Z,21.1
2022-09-28T04:38:54.076Z,21.3
2022-09-28T04:39:56.567Z,21.2
2022-09-28T04:40:59.194Z,21.2
2022-09-28T04:42:01.854Z,21.3
2022-09-28T04:43:04.056Z,21.3
2022-09-28T04:44:06.558Z,21.2
2022-09-28T04:45:08.748Z,21.2
2022-09-28T04:46:11.483Z,21.2
2022-09-28T04:47:14.338Z,21.1
2022-09-28T04:48:16.811Z,21.2
2022-09-28T04:49:19.134Z,21.1
2022-09-28T04:50:21.059Z,21.1
2022-09-28T04:51:23.272Z,21.2
2022-09-28T04:52:25.462Z,21.3
2022-09-28T04:53:27.979Z,21.1
2022-09-28T04:54:29.921Z,21.2
2022-09-28T04:55:31.869Z,21.1
2022-09-28T04:56:34.340Z,21.2
2022-09-28T04:57:36.917Z,21.2
2022-09-28T04:58:38.557Z,21.2
2022-09-28T04:59:40.776Z,21.2
2022-09-28T05:00:43.366Z,21.2
2022-09-28T05:01:46.038Z,21.2
2022-09-28T05:02:48.271Z,21.2
2022-09-28T05:03:50.186Z,21.3
2022-09-28T05:04:52.406Z,21.2
2022-09-28T05:05:54.606Z,21.2
2022-09-28T05:06:56.797Z,21.2
2022-09-28T05:07:59.018Z,21.2
2022-09-28T05:09:01.225Z,21.2
2022-09-28T05:10:03.431Z,21.2
2022-09-28T05:11:05.921Z,21.1
2022-09-28T05:12:08.396Z,21.3
2022-09-28T05:13:10.320Z,21.2
2022-09-28T05:14:12.808Z,21.1
2022-09-28T05:15:15.322Z,21.2
2022-09-28T05:16:17.959Z,21.2
2022-09-28T05:17:20.607Z,21.2
2022-09-28T05:18:23.157Z,21
2022-09-28T05:19:25.638Z,21.1
2022-09-28T05:20:27.836Z,21.2
2022-09-28T05:21:29.464Z,21.1
2022-09-28T05:22:31.734Z,21.1
2022-09-28T05:23:35.125Z,21.2
2022-09-28T05:24:37.332Z,21.1
2022-09-28T05:25:39.276Z,21.2
2022-09-28T05:26:41.786Z,21.2
2022-09-28T05:27:43.977Z,21.2
2022-09-28T05:28:46.459Z,21.1
2022-09-28T05:29:48.655Z,21.1
2022-09-28T05:30:50.873Z,21.1
2022-09-28T05:31:53.489Z,21.1
2022-09-28T05:32:56.241Z,21.1
2022-09-28T05:33:58.492Z,21.2
2022-09-28T05:35:01.017Z,21.2
2022-09-28T05:36:03.218Z,21.1
2022-09-28T05:37:05.708Z,21.1
2022-09-28T05:38:08.202Z,21.1
2022-09-28T05:39:10.872Z,21.2
2022-09-28T05:40:13.236Z,21.1
2022-09-28T05:41:15.956Z,21.1
2022-09-28T05:42:18.177Z,21.1
2022-09-28T05:43:20.652Z,21.1
2022-09-28T05:44:23.127Z,21.1
2022-09-28T05:45:25.860Z,21.2
2022-09-28T05:46:28.720Z,21.1
2022-09-28T05:47:31.261Z,21.1
2022-09-28T05:48:33.459Z,21.1
2022-09-28T05:49:35.971Z,21.2
2022-09-28T05:50:38.173Z,21.1
2022-09-28T05:51:40.648Z,21.2
2022-09-28T05:52:42.826Z,21
2022-09-28T05:53:44.731Z,21.1
2022-09-28T05:54:46.665Z,21
2022-09-28T05:55:48.920Z,21.1
2022-09-28T05:56:50.846Z,21.1
2022-09-28T05:57:53.337Z,21.2
2022-09-28T05:58:55.830Z,20.9
2022-09-28T05:59:57.482Z,21
2022-09-28T06:01:00.141Z,21.1
2022-09-28T06:02:02.822Z,21.1
2022-09-28T06:04:10.640Z,21.2
2022-09-28T06:05:13.015Z,21.1
2022-09-28T06:06:15.239Z,20.9
2022-09-28T06:07:17.726Z,21.1
2022-09-28T06:08:20.205Z,21.1
2022-09-28T06:10:27.101Z,21.1
2022-09-28T06:11:29.798Z,21.1
2022-09-28T06:12:31.987Z,21.2
2022-09-28T06:13:34.483Z,21.2
2022-09-28T06:14:36.958Z,21.1
2022-09-28T06:15:39.436Z,21.1
2022-09-28T06:17:46.920Z,21.1
2022-09-28T06:18:49.119Z,21.1
2022-09-28T06:19:51.309Z,21.1
2022-09-28T06:20:53.824Z,21.1
2022-09-28T06:23:01.279Z,21
2022-09-28T06:24:03.768Z,21
2022-09-28T06:25:05.960Z,21
2022-09-28T06:26:08.206Z,21
2022-09-28T06:27:10.724Z,21.1
2022-09-28T06:28:13.231Z,21.1
2022-09-28T06:30:20.708Z,21
2022-09-28T06:31:22.845Z,21.1
2022-09-28T06:32:25.634Z,21
2022-09-28T06:33:27.860Z,21.1
2022-09-28T06:34:29.792Z,21
2022-09-28T06:35:32.270Z,21.1
2022-09-28T06:36:34.832Z,21.1
2022-09-28T06:37:37.034Z,21
2022-09-28T06:38:39.235Z,21
2022-09-28T06:39:41.725Z,21.1
2022-09-28T06:40:43.839Z,21.2
2022-09-28T06:41:46.284Z,21.2
2022-09-28T06:42:48.825Z,21.1
2022-09-28T06:43:51.044Z,21
2022-09-28T06:44:53.538Z,21
2022-09-28T06:45:55.964Z,21.1
2022-09-28T06:46:58.761Z,21.1
2022-09-28T06:48:01.236Z,21.1
2022-09-28T06:49:03.451Z,21.1
2022-09-28T06:50:05.650Z,21
2022-09-28T06:51:07.852Z,21
2022-09-28T06:52:10.078Z,21
2022-09-28T06:53:12.280Z,21
2022-09-28T06:54:14.611Z,21.1
2022-09-28T06:55:17.229Z,21
2022-09-28T06:56:19.723Z,21.1
2022-09-28T06:57:21.934Z,21.1
2022-09-28T06:58:24.452Z,21
2022-09-28T06:59:26.960Z,21.1
2022-09-28T07:00:29.189Z,21
2022-09-28T07:01:31.854Z,21.1
2022-09-28T07:02:34.829Z,21
2022-09-28T07:03:37.629Z,21.1
2022-09-28T07:04:40.143Z,21.2
2022-09-28T07:05:42.072Z,21
2022-09-28T07:06:44.027Z,20.9
2022-09-28T07:07:46.271Z,21
2022-09-28T07:10:58.181Z,21.1
2022-09-28T07:12:00.379Z,21.1
2022-09-28T07:13:02.711Z,21.2
2022-09-28T07:14:05.404Z,21
2022-09-28T07:15:07.881Z,21
2022-09-28T07:16:10.523Z,21
2022-09-28T07:17:15.105Z,21
2022-09-28T07:18:17.567Z,21
2022-09-28T07:19:20.406Z,20.9
2022-09-28T07:20:22.645Z,21.1
2022-09-28T07:24:40.153Z,21
2022-09-28T07:25:42.692Z,21
2022-09-28T07:26:44.919Z,21.1
2022-09-28T07:27:47.159Z,21
2022-09-28T07:28:49.661Z,21
2022-09-28T07:29:51.915Z,21.1
2022-09-28T07:30:54.537Z,20.9
2022-09-28T07:31:57.059Z,21
2022-09-28T07:32:59.535Z,21
2022-09-28T07:34:01.787Z,21.1
2022-09-28T07:35:04.003Z,21.1
2022-09-28T07:36:06.307Z,21
2022-09-28T07:37:08.782Z,21
2022-09-28T07:38:11.266Z,21
2022-09-28T07:39:12.909Z,21.1
2022-09-28T07:40:15.552Z,21
2022-09-28T07:41:18.022Z,21
2022-09-28T07:42:20.507Z,21
2022-09-28T07:43:23.017Z,20.9
2022-09-28T07:44:25.202Z,21
2022-09-28T07:45:27.730Z,21
2022-09-28T07:46:30.106Z,21.1
2022-09-28T07:48:37.597Z,21.1
2022-09-28T07:49:40.111Z,21.1
2022-09-28T07:50:42.608Z,21
2022-09-28T07:51:45.117Z,21
2022-09-28T07:52:47.591Z,21
2022-09-28T07:53:50.083Z,20.9
2022-09-28T07:54:52.555Z,21
2022-09-28T07:55:55.035Z,20.9
2022-09-28T07:56:57.049Z,21.1
2022-09-28T07:57:59.538Z,21
2022-09-28T07:59:01.741Z,21.1
2022-09-28T08:00:03.925Z,21
2022-09-28T08:01:06.724Z,21
2022-09-28T08:02:09.695Z,21
2022-09-28T08:03:12.467Z,20.9
2022-09-28T08:04:14.954Z,21
2022-09-28T08:05:17.145Z,21
2022-09-28T08:06:19.356Z,20.8
2022-09-28T08:08:26.856Z,20.9
2022-09-28T08:09:29.343Z,21
2022-09-28T08:10:31.581Z,20.9
2022-09-28T08:11:33.800Z,21
2022-09-28T08:12:36.294Z,20.9
2022-09-28T08:13:38.774Z,21.1
2022-09-28T08:14:41.265Z,21
2022-09-28T08:15:43.774Z,20.9
2022-09-28T08:17:50.980Z,21
2022-09-28T08:18:53.208Z,21
2022-09-28T08:19:55.691Z,20.9
2022-09-28T08:20:58.176Z,20.9
2022-09-28T08:22:00.383Z,20.9
2022-09-28T08:23:02.868Z,21
2022-09-28T08:24:05.090Z,21.1
2022-09-28T08:25:07.275Z,20.9
2022-09-28T08:27:14.978Z,21
2022-09-28T08:28:17.485Z,21
2022-09-28T08:29:19.977Z,21
2022-09-28T08:30:22.309Z,21
2022-09-28T08:31:24.711Z,21
2022-09-28T08:32:26.685Z,21.1
2022-09-28T08:33:29.154Z,21
2022-09-28T08:34:31.369Z,20.9
2022-09-28T08:35:33.863Z,21
2022-09-28T08:36:36.182Z,21.1
2022-09-28T08:37:37.823Z,21
2022-09-28T08:38:39.744Z,21
2022-09-28T08:39:42.239Z,21
2022-09-28T08:40:44.813Z,21
2022-09-28T08:41:47.271Z,20.9
2022-09-28T08:42:49.746Z,21
2022-09-28T08:43:52.248Z,21
2022-09-28T08:44:54.467Z,21
2022-09-28T08:45:56.491Z,21
2022-09-28T08:46:58.642Z,20.9
2022-09-28T08:48:01.177Z,20.9
2022-09-28T08:50:08.659Z,21
2022-09-28T08:51:11.290Z,21
2022-09-28T08:52:13.515Z,21
2022-09-28T08:53:15.431Z,21
2022-09-28T08:54:17.421Z,21
2022-09-28T08:55:19.650Z,21
2022-09-28T08:56:22.131Z,21
2022-09-28T08:57:24.343Z,21
2022-09-28T08:58:26.541Z,20.9
2022-09-28T08:59:29.055Z,21
2022-09-28T09:00:31.268Z,21
2022-09-28T09:01:33.605Z,20.9
2022-09-28T09:02:36.489Z,20.9
2022-09-28T09:03:39.251Z,21
2022-09-28T09:04:41.204Z,20.9
2022-09-28T09:05:43.422Z,21
2022-09-28T09:06:45.940Z,21
2022-09-28T09:07:48.129Z,21
2022-09-28T09:08:50.369Z,21
2022-09-28T09:09:52.589Z,20.9
2022-09-28T09:10:55.086Z,20.9
2022-09-28T09:11:57.582Z,21
2022-09-28T09:12:59.533Z,21
2022-09-28T09:14:01.865Z,20.9
2022-09-28T09:15:04.128Z,21
2022-09-28T09:16:06.636Z,20.9
2022-09-28T09:17:08.836Z,21
2022-09-28T09:18:11.325Z,20.9
2022-09-28T09:19:19.762Z,21
2022-09-28T09:20:22.233Z,20.9
2022-09-28T09:21:24.434Z,21
2022-09-28T09:22:26.741Z,21
2022-09-28T09:23:28.665Z,20.9
2022-09-28T09:24:31.142Z,20.9
2022-09-28T09:26:38.387Z,21
2022-09-28T09:27:40.911Z,21
2022-09-28T09:28:43.139Z,20.9
2022-09-28T09:29:45.675Z,21
2022-09-28T09:30:48.255Z,21
2022-09-28T09:31:50.658Z,21
2022-09-28T09:32:52.027Z,21
2022-09-28T09:33:54.533Z,21
2022-09-28T09:34:56.761Z,21
2022-09-28T09:35:59.256Z,20.9
2022-09-28T09:37:01.744Z,21
2022-09-28T09:38:03.978Z,21
2022-09-28T09:39:06.496Z,21
2022-09-28T09:40:09.118Z,21
2022-09-28T09:41:11.377Z,21
2022-09-28T09:42:15.060Z,20.9
2022-09-28T09:43:17.291Z,21
2022-09-28T09:44:20.108Z,20.8
2022-09-28T09:45:22.407Z,20.9
2022-09-28T09:46:24.860Z,20.9
2022-09-28T09:47:27.370Z,20.9
2022-09-28T09:48:29.427Z,21
2022-09-28T09:49:32.000Z,21
2022-09-28T09:50:34.258Z,21
2022-09-28T09:51:36.512Z,21
2022-09-28T09:53:44.033Z,21
2022-09-28T09:54:46.381Z,20.9
2022-09-28T09:55:48.596Z,21
2022-09-28T09:56:50.838Z,20.9
2022-09-28T09:57:53.166Z,21
2022-09-28T09:58:55.069Z,21
2022-09-28T09:59:57.574Z,21
2022-09-28T10:01:00.235Z,20.9
2022-09-28T10:02:02.889Z,20.9
2022-09-28T10:03:10.066Z,21
2022-09-28T10:04:12.282Z,20.8
2022-09-28T10:05:14.755Z,20.9
2022-09-28T10:06:16.730Z,20.9
2022-09-28T10:07:19.197Z,20.8
2022-09-28T10:08:21.707Z,21
2022-09-28T10:09:24.198Z,20.9
2022-09-28T10:10:26.460Z,20.9
2022-09-28T10:11:28.677Z,21
2022-09-28T10:12:30.887Z,20.9
2022-09-28T10:13:32.810Z,21
2022-09-28T10:14:35.292Z,20.9
2022-09-28T10:15:37.767Z,21
2022-09-28T10:16:40.367Z,20.9
2022-09-28T10:17:42.801Z,21
2022-09-28T10:18:45.348Z,20.9
2022-09-28T10:19:46.982Z,20.9
2022-09-28T10:20:49.483Z,20.9
2022-09-28T10:21:52.011Z,20.9
2022-09-28T10:22:54.482Z,21
2022-09-28T10:23:56.683Z,21
2022-09-28T10:24:58.889Z,20.9
2022-09-28T10:26:01.388Z,20.9
2022-09-28T10:27:03.865Z,21
2022-09-28T10:28:06.060Z,21
2022-09-28T10:29:07.992Z,21
2022-09-28T10:30:10.185Z,20.9
2022-09-28T10:31:12.398Z,21
2022-09-28T10:32:14.874Z,20.9
2022-09-28T10:33:17.550Z,20.9
2022-09-28T10:34:20.107Z,20.9
2022-09-28T10:35:22.361Z,20.9
2022-09-28T10:36:23.976Z,20.9
2022-09-28T10:37:26.583Z,20.9
2022-09-28T10:38:28.485Z,21
2022-09-28T10:39:30.693Z,20.9
2022-09-28T10:40:33.268Z,21
2022-09-28T10:41:36.071Z,20.9
2022-09-28T10:42:38.256Z,21
2022-09-28T10:43:40.734Z,21
2022-09-28T10:44:47.735Z,20.9
2022-09-28T10:45:49.991Z,20.9
2022-09-28T10:46:52.422Z,20.8
2022-09-28T10:47:54.930Z,20.9
2022-09-28T10:48:56.870Z,20.9
2022-09-28T10:49:59.078Z,20.9
2022-09-28T10:51:01.273Z,21
2022-09-28T10:52:03.762Z,20.9
2022-09-28T10:53:06.275Z,21
2022-09-28T10:54:08.183Z,21
2022-09-28T10:55:10.666Z,20.9
2022-09-28T10:56:13.158Z,20.9
2022-09-28T10:57:15.380Z,20.9
2022-09-28T10:58:17.867Z,20.9
2022-09-28T10:59:20.331Z,20.9
2022-09-28T11:00:22.575Z,20.9
2022-09-28T11:01:25.009Z,20.9
2022-09-28T11:02:30.325Z,21.1
2022-09-28T11:03:33.520Z,21
2022-09-28T11:04:36.011Z,20.8
2022-09-28T11:05:38.481Z,20.9
2022-09-28T11:06:40.956Z,20.9
2022-09-28T11:07:43.156Z,20.9
2022-09-28T11:08:45.909Z,20.9
2022-09-28T11:09:49.342Z,21
2022-09-28T11:10:51.847Z,20.9
2022-09-28T11:11:54.046Z,21
2022-09-28T11:12:56.276Z,21
2022-09-28T11:13:58.486Z,21
2022-09-28T11:15:00.695Z,20.8
2022-09-28T11:16:02.917Z,20.9
2022-09-28T11:17:05.251Z,21
2022-09-28T11:18:08.062Z,20.9
2022-09-28T11:19:10.709Z,21
2022-09-28T11:20:13.261Z,20.9
2022-09-28T11:21:15.759Z,20.8
2022-09-28T11:22:18.237Z,20.8
2022-09-28T11:23:20.138Z,20.9
2022-09-28T11:24:23.400Z,20.9
2022-09-28T11:25:27.404Z,21
2022-09-28T11:26:30.027Z,20.9
2022-09-28T11:27:32.512Z,21
2022-09-28T11:28:34.708Z,20.9
2022-09-28T11:29:36.908Z,20.9
2022-09-28T11:30:39.200Z,20.9
2022-09-28T11:31:41.865Z,20.9
2022-09-28T11:32:44.336Z,21
2022-09-28T11:33:46.545Z,20.9
2022-09-28T11:35:53.463Z,21
2022-09-28T11:38:00.976Z,20.9
2022-09-28T11:39:02.648Z,20.9
2022-09-28T11:40:05.255Z,20.8
2022-09-28T11:41:08.048Z,21
2022-09-28T11:43:17.391Z,20.9
2022-09-28T11:44:20.192Z,21
2022-09-28T11:45:22.722Z,20.8
2022-09-28T11:46:24.804Z,21
2022-09-28T11:47:27.596Z,20.9
2022-09-28T11:48:29.512Z,21
2022-09-28T11:49:31.724Z,20.9
2022-09-28T11:50:34.223Z,20.9
2022-09-28T11:51:36.217Z,20.9
2022-09-28T11:52:38.447Z,20.8
2022-09-28T11:53:40.918Z,21
2022-09-28T11:54:43.138Z,20.9
2022-09-28T11:55:45.372Z,20.9
2022-09-28T11:56:47.862Z,21
2022-09-28T11:57:50.337Z,21
2022-09-28T11:58:52.538Z,20.9
2022-09-28T11:59:55.209Z,21
2022-09-28T12:00:57.146Z,20.9
2022-09-28T12:01:59.805Z,21
2022-09-28T12:03:02.931Z,21
2022-09-28T12:04:05.807Z,20.8
2022-09-28T12:05:08.014Z,21.1
2022-09-28T12:06:10.495Z,20.8
2022-09-28T12:07:12.995Z,20.9
2022-09-28T12:08:15.236Z,20.9
2022-09-28T12:09:17.830Z,20.9
2022-09-28T12:10:20.757Z,20.9
2022-09-28T12:11:23.052Z,20.8
2022-09-28T12:12:25.277Z,21
2022-09-28T12:13:27.756Z,20.8
2022-09-28T12:14:30.238Z,21
2022-09-28T12:17:42.588Z,20.9
2022-09-28T12:18:45.260Z,21
2022-09-28T12:19:47.692Z,21
2022-09-28T12:20:49.919Z,21
2022-09-28T12:21:52.116Z,20.9
2022-09-28T12:22:54.595Z,21
2022-09-28T12:23:56.270Z,20.9
2022-09-28T12:24:58.459Z,21
2022-09-28T12:26:00.664Z,20.9
2022-09-28T12:27:03.198Z,20.9
2022-09-28T12:28:05.408Z,21.1
2022-09-28T12:29:07.907Z,21
2022-09-28T12:30:10.380Z,20.9
2022-09-28T12:31:13.071Z,20.9
2022-09-28T12:32:15.885Z,20.8
2022-09-28T12:33:17.855Z,21
2022-09-28T12:34:20.377Z,21
2022-09-28T12:35:22.612Z,21
2022-09-28T12:36:24.822Z,21
2022-09-28T12:37:27.046Z,20.9
2022-09-28T12:38:29.250Z,20.9
2022-09-28T12:40:36.596Z,20.8
2022-09-28T12:41:38.519Z,20.9
2022-09-28T12:42:41.048Z,20.9
2022-09-28T12:43:43.531Z,20.9
2022-09-28T12:44:45.533Z,20.9
2022-09-28T12:46:53.188Z,20.9
2022-09-28T12:47:55.744Z,20.9
2022-09-28T12:51:07.966Z,20.8
2022-09-28T12:52:10.175Z,21
2022-09-28T12:53:12.106Z,20.8
2022-09-28T12:54:14.691Z,20.9
2022-09-28T12:55:17.098Z,20.9
2022-09-28T12:57:24.562Z,21
2022-09-28T12:58:27.094Z,20.9
2022-09-28T12:59:29.307Z,20.9
2022-09-28T13:00:31.783Z,21
2022-09-28T13:01:34.108Z,20.8
2022-09-28T13:02:36.796Z,20.9
2022-09-28T13:03:39.437Z,20.9
2022-09-28T13:04:41.647Z,20.9
2022-09-28T13:05:43.555Z,20.7
2022-09-28T13:06:45.800Z,20.9
2022-09-28T13:07:48.003Z,20.9
2022-09-28T13:08:50.497Z,20.8
2022-09-28T13:09:52.709Z,20.8
2022-09-28T13:10:54.661Z,20.9
2022-09-28T13:11:56.727Z,20.8
2022-09-28T13:12:59.217Z,20.8
2022-09-28T13:14:01.726Z,20.9
2022-09-28T13:15:03.939Z,20.9
2022-09-28T13:16:06.361Z,21
2022-09-28T13:17:09.123Z,20.9
2022-09-28T13:18:11.332Z,20.9
2022-09-28T13:19:13.885Z,20.9
2022-09-28T13:20:16.385Z,20.9
2022-09-28T13:21:18.879Z,20.9
2022-09-28T13:22:21.102Z,20.9
2022-09-28T13:23:23.280Z,20.9
2022-09-28T13:25:30.741Z,21
2022-09-28T13:26:32.978Z,20.9
2022-09-28T13:27:35.234Z,20.9
2022-09-28T13:28:36.871Z,21
2022-09-28T13:30:41.712Z,21
2022-09-28T13:31:44.190Z,20.9
2022-09-28T13:32:46.448Z,21
2022-09-28T13:33:48.935Z,20.8
2022-09-28T13:34:51.177Z,20.9
2022-09-28T13:35:53.648Z,20.9
2022-09-28T13:36:55.860Z,21
2022-09-28T13:37:58.062Z,20.9
2022-09-28T13:39:00.284Z,20.9
2022-09-28T13:40:03.001Z,20.9
2022-09-28T13:41:06.033Z,21
2022-09-28T13:42:08.755Z,20.8
2022-09-28T13:43:11.409Z,21
2022-09-28T13:44:18.053Z,21
2022-09-28T13:45:21.204Z,20.9
2022-09-28T13:46:24.005Z,20.8
2022-09-28T13:47:26.959Z,21
2022-09-28T13:48:29.190Z,20.8
2022-09-28T13:49:31.692Z,20.9
2022-09-28T13:50:34.230Z,20.9
2022-09-28T13:51:36.747Z,20.9
2022-09-28T13:52:39.260Z,20.8
2022-09-28T13:53:41.817Z,20.9
2022-09-28T13:54:44.107Z,20.8
2022-09-28T13:55:46.654Z,21.1
2022-09-28T13:56:48.889Z,20.9
2022-09-28T13:57:51.446Z,20.9
2022-09-28T13:58:53.635Z,20.9
2022-09-28T13:59:56.162Z,20.8
2022-09-28T14:00:58.752Z,21
2022-09-28T14:03:06.178Z,21
2022-09-28T14:04:08.839Z,20.9
2022-09-28T14:05:10.843Z,20.9
2022-09-28T14:06:13.465Z,20.9
2022-09-28T14:07:15.558Z,20.9
2022-09-28T14:08:18.562Z,20.7
2022-09-28T14:09:21.178Z,21
2022-09-28T14:10:23.752Z,20.9
2022-09-28T14:11:26.257Z,20.8
2022-09-28T14:12:28.214Z,21
2022-09-28T14:13:30.707Z,20.9
2022-09-28T14:14:32.918Z,21
2022-09-28T14:15:35.605Z,20.9
2022-09-28T14:16:38.223Z,20.8
2022-09-28T14:17:40.443Z,20.8
2022-09-28T14:18:42.679Z,20.9
2022-09-28T14:19:44.919Z,21
2022-09-28T14:20:47.440Z,21
2022-09-28T14:21:49.438Z,20.9
2022-09-28T14:22:51.960Z,20.9
2022-09-28T14:24:59.424Z,20.8
2022-09-28T14:26:01.641Z,20.9
2022-09-28T14:27:03.580Z,20.8
2022-09-28T14:28:06.117Z,20.8
2022-09-28T14:29:10.811Z,20.8
2022-09-28T14:30:13.454Z,20.8
2022-09-28T14:31:15.812Z,20.8
2022-09-28T14:32:18.608Z,20.9
2022-09-28T14:33:21.092Z,21
2022-09-28T14:34:23.336Z,20.9
2022-09-28T14:35:25.834Z,20.8
2022-09-28T14:36:27.757Z,20.8
2022-09-28T14:37:29.984Z,21
2022-09-28T14:38:32.197Z,21
2022-09-28T14:39:34.708Z,20.9
2022-09-28T14:40:37.381Z,20.9
2022-09-28T14:41:39.829Z,20.9